Time;durP1;ratioP1;P1;durP2;ratioP2;P2;SDS_P1;SDS_P2;PMS_P1;PMS_P2;Temp;Humidity;BMP_temperature;BMP_pressure;BME280_temperature;BME280_humidity;BME280_pressure;Samples;Min_cycle;Max_cycle;Signal;HPM_P1;HPM_P2
2022/04/02 00:00:59;;;;;;;0.50;0.50;;;21.30;33.30;;;;;;4997984;28;20386;-62
2022/04/02 00:03:25;;;;;;;0.68;0.52;;;21.30;33.40;;;;;;5036006;28;20392;-62
2022/04/02 00:05:50;;;;;;;0.60;0.52;;;21.30;33.40;;;;;;5033289;28;20509;-61
2022/04/02 00:08:16;;;;;;;1.05;0.50;;;21.20;33.40;;;;;;5000196;28;20057;-61
2022/04/02 00:10:41;;;;;;;1.25;0.70;;;21.20;33.30;;;;;;5032232;28;20460;-61
2022/04/02 00:13:08;;;;;;;0.93;0.50;;;21.20;33.40;;;;;;5034051;28;20045;-61
2022/04/02 00:15:33;;;;;;;0.73;0.60;;;21.20;33.40;;;;;;5034640;28;20097;-62
2022/04/02 00:17:59;;;;;;;0.40;0.40;;;21.20;33.30;;;;;;5017985;28;20400;-62
2022/04/02 00:20:25;;;;;;;0.65;0.65;;;21.10;33.20;;;;;;5014795;28;20079;-62
2022/04/02 00:25:35;;;;;;;0.75;0.50;;;21.10;33.30;;;;;;5024151;28;20060;-63
2022/04/02 00:28:01;;;;;;;0.50;0.50;;;21.10;33.30;;;;;;5016661;28;20049;-61
2022/04/02 00:30:26;;;;;;;1.38;0.60;;;21.10;33.30;;;;;;5016081;28;20049;-61
2022/04/02 00:32:52;;;;;;;0.63;0.60;;;21.10;33.30;;;;;;5015334;28;20041;-62
2022/04/02 00:35:17;;;;;;;1.15;0.50;;;21.00;33.10;;;;;;5015465;28;20057;-62
2022/04/02 00:37:43;;;;;;;0.60;0.43;;;21.00;33.10;;;;;;5017347;28;20485;-62
2022/04/02 00:40:09;;;;;;;0.68;0.68;;;21.00;33.20;;;;;;5001507;28;20053;-62
2022/04/02 00:42:35;;;;;;;1.27;0.60;;;21.00;33.20;;;;;;5013712;28;20053;-62
2022/04/02 00:45:00;;;;;;;0.50;0.50;;;21.00;33.20;;;;;;5014253;28;20060;-62
2022/04/02 00:47:26;;;;;;;0.70;0.55;;;21.00;33.20;;;;;;5033292;28;20044;-62
2022/04/02 00:49:53;;;;;;;0.77;0.50;;;20.90;33.20;;;;;;5031770;28;20033;-62
2022/04/02 00:52:20;;;;;;;0.57;0.50;;;20.90;33.20;;;;;;5014907;28;20053;-62
2022/04/02 00:54:47;;;;;;;0.65;0.50;;;20.90;33.20;;;;;;5034212;28;20076;-62
2022/04/02 00:57:13;;;;;;;0.65;0.60;;;20.90;33.10;;;;;;5017513;28;20865;-62
2022/04/02 00:59:39;;;;;;;1.50;0.52;;;20.90;33.20;;;;;;5016522;28;20052;-62
2022/04/02 01:02:04;;;;;;;1.23;0.60;;;20.80;33.20;;;;;;5031751;28;20076;-61
2022/04/02 01:04:30;;;;;;;0.60;0.60;;;20.80;33.10;;;;;;5016498;28;20044;-63
2022/04/02 01:06:57;;;;;;;0.50;0.50;;;20.80;33.10;;;;;;5015529;28;20048;-63
2022/04/02 01:09:22;;;;;;;1.27;0.55;;;20.80;33.10;;;;;;5014649;28;20045;-61
2022/04/02 01:11:48;;;;;;;1.25;0.50;;;20.80;33.10;;;;;;5031110;28;20068;-62
2022/04/02 01:14:14;;;;;;;0.60;0.60;;;20.80;33.10;;;;;;5014438;28;20068;-62
2022/04/02 01:16:39;;;;;;;0.73;0.60;;;20.80;33.10;;;;;;5032316;28;20069;-62
2022/04/02 01:19:06;;;;;;;0.77;0.50;;;20.80;33.20;;;;;;5000027;28;20068;-62
2022/04/02 01:21:33;;;;;;;1.17;0.60;;;20.70;33.30;;;;;;5015556;28;20516;-61
2022/04/02 01:24:00;;;;;;;1.20;0.80;;;20.70;33.20;;;;;;5012747;28;20050;-62
2022/04/02 01:26:26;;;;;;;0.77;0.68;;;20.70;33.10;;;;;;5033380;28;20056;-62
2022/04/02 01:28:58;;;;;;;0.85;0.60;;;20.70;33.10;;;;;;5034000;28;20103;-61
2022/04/02 01:31:24;;;;;;;0.60;0.60;;;20.70;33.10;;;;;;5034063;28;20400;-62
2022/04/02 01:33:51;;;;;;;1.02;0.80;;;20.70;33.10;;;;;;5013282;28;20049;-62
2022/04/02 01:36:18;;;;;;;0.52;0.52;;;20.60;33.10;;;;;;5032682;28;20075;-62
2022/04/02 01:38:44;;;;;;;1.20;0.88;;;20.60;33.10;;;;;;5031539;28;20413;-62
2022/04/02 01:41:10;;;;;;;0.95;0.70;;;20.60;33.00;;;;;;5015586;28;20123;-64
2022/04/02 01:43:35;;;;;;;0.98;0.60;;;20.60;33.10;;;;;;5031811;28;20062;-63
2022/04/02 01:46:03;;;;;;;0.40;0.40;;;20.60;33.00;;;;;;5012943;28;20390;-63
2022/04/02 01:48:28;;;;;;;0.65;0.65;;;20.60;33.10;;;;;;5031236;28;20053;-61
2022/04/02 01:50:54;;;;;;;0.60;0.60;;;20.50;33.00;;;;;;5015417;28;20052;-62
2022/04/02 01:53:22;;;;;;;0.47;0.40;;;20.50;33.00;;;;;;5032781;28;20048;-62
2022/04/02 01:55:48;;;;;;;0.60;0.60;;;20.50;33.00;;;;;;5015216;28;20064;-62
2022/04/02 01:58:14;;;;;;;1.60;0.70;;;20.50;33.00;;;;;;5013475;28;20041;-61
2022/04/02 02:00:40;;;;;;;0.93;0.50;;;20.50;33.00;;;;;;5029646;28;20155;-63
2022/04/02 02:03:09;;;;;;;1.95;0.85;;;20.50;33.00;;;;;;4999513;28;20041;-62
2022/04/02 02:05:35;;;;;;;0.98;0.63;;;20.50;33.30;;;;;;5011657;28;20049;-61
2022/04/02 02:08:02;;;;;;;0.75;0.60;;;20.50;33.00;;;;;;5029775;28;20129;-63
2022/04/02 02:10:28;;;;;;;0.63;0.60;;;20.40;33.00;;;;;;5014022;28;20529;-62
2022/04/02 02:12:53;;;;;;;0.68;0.60;;;20.40;33.00;;;;;;5015564;28;20048;-61
2022/04/02 02:15:19;;;;;;;0.50;0.50;;;20.40;33.00;;;;;;5035395;28;20063;-62
2022/04/02 02:17:47;;;;;;;0.80;0.60;;;20.40;33.00;;;;;;5019365;28;20068;-64
2022/04/02 02:20:13;;;;;;;0.65;0.60;;;20.40;33.10;;;;;;5033207;28;20187;-62
2022/04/02 02:22:40;;;;;;;0.50;0.50;;;20.40;33.00;;;;;;5036858;28;20045;-62
2022/04/02 02:25:09;;;;;;;1.02;0.43;;;20.40;33.00;;;;;;5035266;28;20048;-62
2022/04/02 02:27:35;;;;;;;0.57;0.40;;;20.40;33.00;;;;;;5035421;28;20053;-61
2022/04/02 02:30:04;;;;;;;0.60;0.60;;;20.40;33.10;;;;;;5036843;28;20389;-62
2022/04/02 02:32:35;;;;;;;0.50;0.50;;;20.40;33.00;;;;;;5034934;28;20045;-62
2022/04/02 02:37:45;;;;;;;0.65;0.60;;;20.30;33.00;;;;;;5036455;28;20065;-62
2022/04/02 02:40:12;;;;;;;0.70;0.60;;;20.30;33.00;;;;;;5018209;28;20094;-63
2022/04/02 02:42:38;;;;;;;0.70;0.60;;;20.30;33.00;;;;;;5035589;28;20056;-63
2022/04/02 02:45:04;;;;;;;0.60;0.60;;;20.30;33.00;;;;;;5034614;28;20056;-62
2022/04/02 02:47:30;;;;;;;0.82;0.60;;;20.30;33.00;;;;;;5019012;28;20046;-63
2022/04/02 02:49:55;;;;;;;1.58;0.52;;;20.30;33.00;;;;;;5019367;28;20057;-62
2022/04/02 02:52:21;;;;;;;0.50;0.50;;;20.20;33.00;;;;;;5018162;28;20053;-63
2022/04/02 02:54:47;;;;;;;0.40;0.40;;;20.20;33.00;;;;;;5018697;28;20041;-62
2022/04/02 02:57:12;;;;;;;0.55;0.55;;;20.20;33.10;;;;;;5018543;28;20071;-62
2022/04/02 02:59:38;;;;;;;0.60;0.60;;;20.20;33.00;;;;;;5015927;28;20167;-62
2022/04/02 03:02:04;;;;;;;0.60;0.60;;;20.20;33.00;;;;;;5019261;28;20045;-63
2022/04/02 03:04:30;;;;;;;0.70;0.60;;;20.20;33.00;;;;;;5025157;28;20081;-62
2022/04/02 03:06:56;;;;;;;1.05;0.50;;;20.20;33.00;;;;;;5016857;28;20056;-62
2022/04/02 03:09:22;;;;;;;0.93;0.75;;;20.20;33.00;;;;;;5037288;28;20046;-63
2022/04/02 03:11:49;;;;;;;0.60;0.60;;;20.20;33.00;;;;;;5033839;28;20373;-63
2022/04/02 03:14:15;;;;;;;1.40;0.70;;;20.10;32.90;;;;;;5033851;28;20053;-62
2022/04/02 03:16:41;;;;;;;0.43;0.40;;;20.10;32.90;;;;;;5017626;28;20705;-63
2022/04/02 03:19:07;;;;;;;0.40;0.40;;;20.10;33.00;;;;;;5037350;28;20107;-63
2022/04/02 03:21:33;;;;;;;2.38;0.60;;;20.10;32.90;;;;;;5016376;28;20048;-62
2022/04/02 03:23:59;;;;;;;0.57;0.57;;;20.10;32.90;;;;;;5015079;28;20104;-62
2022/04/02 03:26:26;;;;;;;0.75;0.60;;;20.10;32.90;;;;;;5000780;28;20084;-62
2022/04/02 03:28:52;;;;;;;0.60;0.60;;;20.10;33.00;;;;;;5017478;28;20986;-63
2022/04/02 03:31:17;;;;;;;0.55;0.50;;;20.10;33.00;;;;;;4998412;28;20050;-62
2022/04/02 03:33:43;;;;;;;1.30;0.50;;;20.00;33.00;;;;;;4997294;28;20401;-62
2022/04/02 03:36:10;;;;;;;0.85;0.57;;;20.10;33.00;;;;;;5034466;28;20901;-62
2022/04/02 03:38:39;;;;;;;0.52;0.52;;;20.00;33.00;;;;;;5017176;28;20194;-63
2022/04/02 03:41:06;;;;;;;0.70;0.63;;;20.00;32.90;;;;;;5016886;28;20065;-62
2022/04/02 03:43:32;;;;;;;0.73;0.60;;;20.00;32.90;;;;;;5034891;28;20053;-63
2022/04/02 03:47:08;;;;;;;0.50;0.50;;;20.00;32.90;;;;;;5014405;28;20694;-62
2022/04/02 03:48:44;;;;;;;1.15;0.60;;;20.00;32.90;;;;;;5034560;28;20053;-62
2022/04/02 03:51:10;;;;;;;0.73;0.70;;;20.00;32.90;;;;;;5016540;28;20090;-62
2022/04/02 03:53:36;;;;;;;0.50;0.50;;;20.00;32.90;;;;;;5033900;28;20139;-62
2022/04/02 03:56:02;;;;;;;0.93;0.55;;;20.00;32.90;;;;;;5018031;28;20059;-62
2022/04/02 03:58:28;;;;;;;1.15;0.70;;;20.00;33.00;;;;;;5018789;28;20060;-62
2022/04/02 04:00:54;;;;;;;0.55;0.50;;;20.00;33.00;;;;;;5030974;28;20040;-61
2022/04/02 04:03:19;;;;;;;2.03;1.15;;;20.00;32.90;;;;;;5012247;28;20094;-62
2022/04/02 04:05:45;;;;;;;0.63;0.50;;;19.90;32.80;;;;;;5030563;28;20095;-61
2022/04/02 04:08:11;;;;;;;0.65;0.60;;;19.90;32.80;;;;;;5032029;28;20474;-61
2022/04/02 04:10:37;;;;;;;0.70;0.60;;;19.90;32.90;;;;;;5034061;28;20057;-61
2022/04/02 04:13:02;;;;;;;1.58;0.77;;;19.90;32.90;;;;;;5034055;28;20044;-62
2022/04/02 04:15:28;;;;;;;1.08;0.68;;;19.90;32.80;;;;;;5016811;28;20152;-63
2022/04/02 04:17:56;;;;;;;1.40;0.82;;;19.90;32.90;;;;;;5017694;28;20099;-63
2022/04/02 04:20:22;;;;;;;0.82;0.47;;;19.90;32.80;;;;;;5030522;28;20060;-62
2022/04/02 04:22:47;;;;;;;1.08;0.77;;;19.90;32.80;;;;;;4997606;28;20357;-62
2022/04/02 04:25:13;;;;;;;1.58;0.80;;;19.90;32.90;;;;;;5017266;28;20152;-61
2022/04/02 04:27:39;;;;;;;0.57;0.50;;;19.90;32.90;;;;;;5034579;28;20037;-62
2022/04/02 04:30:05;;;;;;;0.60;0.60;;;19.90;32.90;;;;;;5035056;28;20048;-62
2022/04/02 04:32:31;;;;;;;0.57;0.50;;;19.80;32.80;;;;;;5030836;28;20057;-62
2022/04/02 04:34:57;;;;;;;0.80;0.60;;;19.90;33.00;;;;;;5035025;28;20050;-62
2022/04/02 04:37:22;;;;;;;1.75;0.57;;;19.80;32.90;;;;;;5034539;28;20052;-62
2022/04/02 04:39:48;;;;;;;0.40;0.40;;;19.80;32.90;;;;;;5032405;28;20134;-62
2022/04/02 04:42:13;;;;;;;0.88;0.60;;;19.80;32.90;;;;;;5034526;28;20450;-62
2022/04/02 04:44:40;;;;;;;0.70;0.60;;;19.90;33.00;;;;;;5034942;28;20198;-63
2022/04/02 04:47:06;;;;;;;1.17;0.60;;;19.90;33.00;;;;;;5024943;28;20201;-62
2022/04/02 04:49:32;;;;;;;0.50;0.50;;;19.90;33.00;;;;;;5018300;28;20051;-63
2022/04/02 04:51:58;;;;;;;1.15;0.57;;;19.80;33.00;;;;;;5016388;28;20131;-62
2022/04/02 04:54:23;;;;;;;0.73;0.70;;;19.80;33.10;;;;;;5035357;28;20060;-61
2022/04/02 04:56:49;;;;;;;1.83;0.60;;;19.80;33.00;;;;;;5033894;28;20485;-62
2022/04/02 04:59:15;;;;;;;0.50;0.50;;;19.90;33.10;;;;;;5032211;28;20052;-62
2022/04/02 05:01:41;;;;;;;1.13;0.60;;;19.90;33.10;;;;;;5015518;28;20217;-62
2022/04/02 05:04:06;;;;;;;0.63;0.63;;;19.90;33.10;;;;;;5033138;28;20746;-62
2022/04/02 05:06:37;;;;;;;0.68;0.57;;;19.90;33.10;;;;;;5014549;28;20428;-63
2022/04/02 05:09:04;;;;;;;1.60;0.70;;;19.90;33.20;;;;;;5014303;28;20084;-62
2022/04/02 05:11:30;;;;;;;0.73;0.65;;;19.90;33.10;;;;;;5033026;28;20045;-62
2022/04/02 05:13:56;;;;;;;1.65;0.50;;;19.90;33.10;;;;;;5012835;28;20063;-62
2022/04/02 05:16:23;;;;;;;0.60;0.60;;;19.90;33.20;;;;;;5006458;28;20041;-62
2022/04/02 05:18:49;;;;;;;1.25;0.85;;;19.90;33.10;;;;;;5033136;28;20515;-61
2022/04/02 05:21:15;;;;;;;0.70;0.70;;;19.90;33.10;;;;;;5016744;28;20556;-62
2022/04/02 05:23:40;;;;;;;0.60;0.60;;;19.90;33.00;;;;;;5014786;28;20165;-64
2022/04/02 05:26:06;;;;;;;0.60;0.60;;;19.90;33.10;;;;;;5015343;28;20136;-62
2022/04/02 05:28:31;;;;;;;0.63;0.45;;;20.00;33.30;;;;;;5014000;28;20045;-62
2022/04/02 05:30:57;;;;;;;0.55;0.50;;;20.00;33.30;;;;;;5033651;28;20621;-63
2022/04/02 05:33:22;;;;;;;1.00;0.57;;;20.00;33.30;;;;;;5015904;28;20053;-63
2022/04/02 05:35:48;;;;;;;0.77;0.60;;;20.00;33.20;;;;;;5033424;28;20393;-63
2022/04/02 05:38:14;;;;;;;0.50;0.50;;;20.00;33.20;;;;;;5030715;28;20068;-63
2022/04/02 05:40:40;;;;;;;0.98;0.50;;;20.00;33.20;;;;;;4997218;28;20046;-62
2022/04/02 05:43:06;;;;;;;1.05;0.50;;;20.00;33.20;;;;;;5031103;28;20528;-63
2022/04/02 05:45:33;;;;;;;0.50;0.50;;;20.00;33.10;;;;;;5015492;28;20053;-63
2022/04/02 05:47:58;;;;;;;0.63;0.60;;;20.10;33.30;;;;;;5035398;28;20182;-62
2022/04/02 05:50:26;;;;;;;0.63;0.55;;;20.10;33.30;;;;;;5036084;28;20044;-62
2022/04/02 05:52:52;;;;;;;2.20;0.63;;;20.10;33.30;;;;;;5019375;28;20061;-62
2022/04/02 05:55:18;;;;;;;1.00;0.63;;;20.10;33.30;;;;;;5018769;28;20158;-62
2022/04/02 05:57:45;;;;;;;2.17;0.85;;;20.10;33.20;;;;;;5020387;28;20042;-61
2022/04/02 06:00:12;;;;;;;0.85;0.70;;;20.10;33.30;;;;;;5018900;28;20053;-62
2022/04/02 06:02:38;;;;;;;0.70;0.60;;;20.10;33.30;;;;;;5035817;28;20053;-63
2022/04/02 06:05:07;;;;;;;1.77;0.70;;;20.10;33.30;;;;;;5001220;28;20397;-62
2022/04/02 06:07:33;;;;;;;2.13;0.68;;;20.10;33.30;;;;;;5019306;28;20049;-63
2022/04/02 06:09:58;;;;;;;1.63;0.63;;;20.10;33.30;;;;;;5017337;28;20055;-62
2022/04/02 06:12:24;;;;;;;1.00;0.63;;;20.20;33.40;;;;;;5018251;28;20048;-61
2022/04/02 06:14:49;;;;;;;0.65;0.65;;;20.20;33.50;;;;;;5006495;28;20554;-63
2022/04/02 06:17:15;;;;;;;2.00;0.70;;;20.20;33.70;;;;;;5016509;28;20473;-64
2022/04/02 06:19:41;;;;;;;3.17;0.60;;;20.20;33.80;;;;;;5016358;28;20061;-64
2022/04/02 06:22:07;;;;;;;3.40;0.50;;;20.20;34.00;;;;;;4995002;28;20652;-64
2022/04/02 06:24:36;;;;;;;1.55;0.55;;;20.20;34.20;;;;;;4997144;28;20045;-64
2022/04/02 06:27:03;;;;;;;1.23;0.70;;;20.20;34.60;;;;;;5034990;28;20052;-63
2022/04/02 06:29:28;;;;;;;0.47;0.40;;;20.20;34.60;;;;;;5014565;28;20465;-63
2022/04/02 06:31:55;;;;;;;0.95;0.65;;;20.20;34.70;;;;;;5033178;28;20313;-68
2022/04/02 06:34:21;;;;;;;1.98;0.60;;;20.20;34.70;;;;;;5018304;28;20053;-62
2022/04/02 06:36:46;;;;;;;1.55;0.60;;;20.20;34.80;;;;;;5016875;28;20096;-64
2022/04/02 06:39:12;;;;;;;0.70;0.57;;;20.20;34.80;;;;;;5036061;28;20057;-64
2022/04/02 06:41:38;;;;;;;2.30;0.60;;;20.30;34.90;;;;;;5020025;28;20053;-64
2022/04/02 06:44:07;;;;;;;0.68;0.55;;;20.20;34.90;;;;;;5018702;28;20068;-64
2022/04/02 06:46:34;;;;;;;4.45;0.65;;;20.30;35.80;;;;;;5018350;28;20059;-64
2022/04/02 06:49:00;;;;;;;2.58;0.60;;;20.30;35.20;;;;;;5000401;28;20111;-63
2022/04/02 06:51:26;;;;;;;2.90;0.70;;;20.30;35.30;;;;;;5017839;28;20057;-63
2022/04/02 06:53:52;;;;;;;2.10;0.70;;;20.30;35.40;;;;;;5034070;28;20094;-66
2022/04/02 06:56:18;;;;;;;1.67;0.90;;;20.30;35.60;;;;;;5001975;28;20738;-63
2022/04/02 06:58:44;;;;;;;6.18;0.82;;;20.40;35.70;;;;;;5018353;28;20064;-67
2022/04/02 07:01:10;;;;;;;3.20;0.90;;;20.40;35.70;;;;;;4998022;28;20112;-62
2022/04/02 07:03:37;;;;;;;1.98;0.65;;;20.40;35.90;;;;;;5030556;28;20052;-63
2022/04/02 07:06:03;;;;;;;3.30;0.60;;;20.40;35.90;;;;;;5017579;28;20068;-64
2022/04/02 07:08:29;;;;;;;2.08;0.77;;;20.40;35.90;;;;;;5000209;28;20343;-63
2022/04/02 07:10:56;;;;;;;1.40;0.60;;;20.40;35.90;;;;;;4999292;28;20052;-64
2022/04/02 07:13:24;;;;;;;3.33;0.82;;;20.50;35.90;;;;;;5001221;28;20045;-63
2022/04/02 07:15:50;;;;;;;1.52;0.70;;;20.40;36.00;;;;;;5034406;28;20048;-64
2022/04/02 07:18:16;;;;;;;2.45;0.80;;;20.40;36.00;;;;;;5034099;28;20414;-63
2022/04/02 07:20:42;;;;;;;2.60;0.90;;;20.40;36.00;;;;;;4996455;28;20053;-62
2022/04/02 07:23:09;;;;;;;2.28;0.63;;;20.40;36.00;;;;;;5014992;28;20044;-62
2022/04/02 07:25:39;;;;;;;1.63;0.60;;;20.50;36.00;;;;;;5014054;28;20053;-62
2022/04/02 07:28:08;;;;;;;1.60;0.70;;;20.50;36.10;;;;;;5033669;28;20508;-62
2022/04/02 07:30:35;;;;;;;0.77;0.75;;;20.50;36.10;;;;;;5016092;28;20083;-61
2022/04/02 07:33:01;;;;;;;3.25;0.90;;;20.50;36.50;;;;;;5016025;28;20069;-63
2022/04/02 07:36:08;;;;;;;4.07;1.10;;;20.50;36.30;;;;;;5018843;28;20713;-63
2022/04/02 07:38:59;;;;;;;2.65;0.75;;;20.50;36.60;;;;;;5024261;28;20115;-62
2022/04/02 07:42:00;;;;;;;2.28;1.02;;;20.50;36.50;;;;;;5015937;28;20408;-62
2022/04/02 07:44:48;;;;;;;2.08;0.80;;;20.50;36.60;;;;;;5031340;28;20377;-65
2022/04/02 07:47:15;;;;;;;2.22;0.75;;;20.50;36.60;;;;;;5021517;28;20041;-63
2022/04/02 07:49:45;;;;;;;4.18;0.93;;;20.50;36.50;;;;;;5035782;28;20048;-64
2022/04/02 07:52:12;;;;;;;8.50;1.10;;;20.50;36.50;;;;;;5002392;28;20103;-62
2022/04/02 07:54:41;;;;;;;3.58;1.10;;;20.50;36.20;;;;;;5015880;28;20046;-63
2022/04/02 07:57:09;;;;;;;3.60;1.00;;;20.50;36.20;;;;;;5024480;28;20049;-62
2022/04/02 07:59:44;;;;;;;2.00;0.80;;;20.50;36.20;;;;;;5016725;28;20560;-63
2022/04/02 08:05:00;;;;;;;5.47;0.98;;;20.50;36.20;;;;;;5024287;28;20058;-63
2022/04/02 08:07:28;;;;;;;2.42;0.80;;;20.50;36.90;;;;;;5017130;28;20164;-62
2022/04/02 08:09:55;;;;;;;2.33;0.88;;;20.50;36.20;;;;;;5031031;28;20056;-62
2022/04/02 08:12:23;;;;;;;3.58;0.82;;;20.60;36.20;;;;;;5000671;28;20254;-62
2022/04/02 08:14:50;;;;;;;3.17;0.70;;;20.60;36.20;;;;;;5032587;28;20053;-61
2022/04/02 08:17:15;;;;;;;2.88;0.85;;;20.60;36.20;;;;;;4998667;28;20060;-62
2022/04/02 08:19:41;;;;;;;1.52;0.93;;;20.60;36.20;;;;;;4999396;28;20041;-62
2022/04/02 08:22:07;;;;;;;2.60;0.90;;;20.60;36.10;;;;;;5033296;28;20029;-62
2022/04/02 08:24:33;;;;;;;3.28;0.98;;;20.60;36.10;;;;;;5032207;28;20053;-62
2022/04/02 08:27:04;;;;;;;1.50;0.70;;;20.60;36.20;;;;;;5013224;28;20141;-62
2022/04/02 08:29:35;;;;;;;2.83;0.93;;;20.60;36.10;;;;;;5013376;28;20084;-64
2022/04/02 08:32:40;;;;;;;2.47;0.77;;;20.60;36.10;;;;;;5014069;28;20049;-63
2022/04/02 08:35:16;;;;;;;2.40;0.90;;;20.70;36.10;;;;;;5013362;28;20052;-64
2022/04/02 08:38:17;;;;;;;2.35;0.65;;;20.70;36.00;;;;;;5032580;28;20045;-62
2022/04/02 08:41:14;;;;;;;1.85;0.77;;;20.70;36.10;;;;;;5015517;28;20111;-63
2022/04/02 08:44:01;;;;;;;2.03;1.08;;;20.70;36.10;;;;;;5007465;28;20052;-62
2022/04/02 08:46:33;;;;;;;1.98;0.80;;;20.70;36.20;;;;;;5032583;28;20044;-62
2022/04/02 08:49:26;;;;;;;1.90;0.82;;;20.70;36.20;;;;;;5028377;28;20127;-62
2022/04/02 08:52:22;;;;;;;2.15;0.90;;;20.70;36.40;;;;;;4986718;28;20057;-62
2022/04/02 08:55:09;;;;;;;0.82;0.50;;;20.70;36.50;;;;;;5000673;28;20083;-63
2022/04/02 08:57:50;;;;;;;1.85;0.63;;;20.70;36.50;;;;;;5014876;28;20444;-64
2022/04/02 09:00:23;;;;;;;0.73;0.50;;;20.80;36.60;;;;;;5015198;28;20127;-63
2022/04/02 09:03:26;;;;;;;1.42;0.60;;;20.70;36.50;;;;;;5015381;28;20393;-62
2022/04/02 09:06:26;;;;;;;0.80;0.50;;;20.80;36.60;;;;;;5033026;28;20044;-63
2022/04/02 09:09:05;;;;;;;1.38;0.70;;;20.80;36.60;;;;;;5030825;28;20048;-63
2022/04/02 09:11:39;;;;;;;1.55;0.77;;;20.80;36.60;;;;;;5013919;28;20057;-64
2022/04/02 09:14:23;;;;;;;2.05;0.77;;;20.80;36.80;;;;;;5031534;28;20056;-63
2022/04/02 09:17:30;;;;;;;1.02;0.60;;;20.80;36.70;;;;;;5012193;28;20107;-62
2022/04/02 09:20:17;;;;;;;2.45;0.70;;;20.80;36.70;;;;;;5014997;28;20045;-63
2022/04/02 09:23:09;;;;;;;1.95;0.90;;;20.80;36.80;;;;;;5014297;28;20049;-64
2022/04/02 09:25:52;;;;;;;7.72;1.38;;;20.80;36.90;;;;;;5040886;28;20049;-64
2022/04/02 09:28:56;;;;;;;1.23;0.70;;;20.80;36.90;;;;;;5011093;28;20049;-65
2022/04/02 09:31:54;;;;;;;1.95;0.77;;;20.80;37.10;;;;;;5001457;28;20056;-64
2022/04/02 09:34:26;;;;;;;3.30;1.02;;;20.80;37.10;;;;;;5023525;28;20056;-63
2022/04/02 09:37:13;;;;;;;1.25;0.70;;;20.80;37.20;;;;;;5016918;28;20045;-64
2022/04/02 09:40:08;;;;;;;2.15;0.65;;;20.80;37.20;;;;;;5017659;28;20467;-64
2022/04/02 09:42:43;;;;;;;1.08;0.70;;;20.80;37.20;;;;;;5035333;28;20068;-63
2022/04/02 09:45:18;;;;;;;3.17;1.20;;;20.80;37.10;;;;;;5025761;28;20477;-64
2022/04/02 09:48:12;;;;;;;7.03;2.33;;;20.90;37.20;;;;;;5026392;28;20091;-63
2022/04/02 09:50:37;;;;;;;4.93;1.98;;;20.90;37.30;;;;;;5019656;28;20695;-63
2022/04/02 09:53:19;;;;;;;4.78;2.10;;;20.80;37.30;;;;;;5035643;28;20140;-62
2022/04/02 09:55:51;;;;;;;10.18;3.13;;;20.90;37.40;;;;;;5020080;28;20489;-62
2022/04/02 09:58:36;;;;;;;14.68;4.57;;;20.90;37.40;;;;;;5013216;28;20061;-63
2022/04/02 10:01:07;;;;;;;15.82;4.80;;;20.90;37.60;;;;;;5016683;28;20041;-64
2022/04/02 10:03:44;;;;;;;15.68;5.25;;;20.90;37.80;;;;;;5020385;28;20049;-63
2022/04/02 10:06:22;;;;;;;16.17;5.28;;;20.90;37.90;;;;;;5015414;28;20057;-63
2022/04/02 10:09:04;;;;;;;14.77;5.95;;;20.90;38.00;;;;;;5033988;28;20060;-63
2022/04/02 10:11:31;;;;;;;23.30;5.90;;;20.90;38.20;;;;;;5018070;28;20401;-62
2022/04/02 10:13:59;;;;;;;18.88;5.70;;;20.90;38.10;;;;;;5016228;28;20528;-63
2022/04/02 10:16:25;;;;;;;20.42;5.22;;;20.90;38.10;;;;;;5035744;28;20056;-64
2022/04/02 10:18:56;;;;;;;22.52;8.25;;;20.90;38.00;;;;;;5011554;28;20071;-62
2022/04/02 10:21:22;;;;;;;24.08;7.30;;;20.90;39.10;;;;;;5018045;28;20040;-62
2022/04/02 10:24:21;;;;;;;25.48;7.57;;;20.90;38.40;;;;;;5000128;28;20043;-62
2022/04/02 10:26:55;;;;;;;18.20;5.70;;;20.90;38.70;;;;;;5034200;28;20085;-62
2022/04/02 10:29:45;;;;;;;17.60;6.05;;;20.90;38.60;;;;;;5036372;28;20048;-65
2022/04/02 10:32:38;;;;;;;23.67;6.82;;;20.90;38.50;;;;;;5034177;28;20048;-64
2022/04/02 10:35:08;;;;;;;15.90;6.13;;;20.90;38.50;;;;;;5036624;28;20076;-64
2022/04/02 10:37:39;;;;;;;17.17;6.47;;;20.90;38.50;;;;;;5019702;28;20053;-63
2022/04/02 10:40:09;;;;;;;23.25;7.05;;;20.90;38.60;;;;;;4998481;28;20052;-63
2022/04/02 10:42:37;;;;;;;21.20;7.55;;;20.90;38.70;;;;;;5019661;28;20049;-65
2022/04/02 10:45:22;;;;;;;20.67;7.53;;;21.00;38.70;;;;;;5018156;28;20499;-65
2022/04/02 10:48:10;;;;;;;23.50;7.70;;;21.00;38.70;;;;;;5018259;28;20497;-62
2022/04/02 10:50:38;;;;;;;22.58;8.40;;;20.90;38.70;;;;;;5033560;28;20045;-63
2022/04/02 10:53:05;;;;;;;18.20;6.15;;;20.90;38.70;;;;;;5000525;28;20046;-62
2022/04/02 10:55:32;;;;;;;18.80;6.72;;;20.90;38.70;;;;;;5017911;28;20132;-65
2022/04/02 10:57:59;;;;;;;24.45;6.57;;;21.00;38.80;;;;;;5033493;28;20067;-62
2022/04/02 11:00:29;;;;;;;15.43;5.85;;;21.00;38.60;;;;;;5019527;28;20059;-64
2022/04/02 11:03:05;;;;;;;15.30;5.57;;;21.00;38.50;;;;;;5034581;28;20040;-64
2022/04/02 11:05:38;;;;;;;17.45;5.65;;;21.00;38.50;;;;;;5025444;28;20458;-62
2022/04/02 11:08:11;;;;;;;14.27;5.05;;;21.00;38.30;;;;;;5017689;28;20413;-62
2022/04/02 11:10:37;;;;;;;15.82;5.15;;;21.00;38.30;;;;;;5035709;28;20380;-61
2022/04/02 11:13:08;;;;;;;13.63;5.03;;;21.00;38.20;;;;;;5015389;28;20095;-62
2022/04/02 11:15:40;;;;;;;;;;;21.00;38.10;;;;;;5002977;28;20439;-61
2022/04/02 11:18:17;;;;;;;11.68;4.40;;;21.00;38.00;;;;;;5019777;28;19924;-62
2022/04/02 11:20:44;;;;;;;11.93;4.75;;;20.90;38.10;;;;;;5016737;28;20060;-61
2022/04/02 11:23:15;;;;;;;14.13;4.88;;;20.90;38.10;;;;;;5036552;28;20515;-61
2022/04/02 11:25:47;;;;;;;11.82;3.92;;;20.90;38.20;;;;;;5032671;28;20041;-61
2022/04/02 11:28:20;;;;;;;10.85;4.03;;;21.00;38.20;;;;;;5032973;28;20045;-62
2022/04/02 11:31:05;;;;;;;9.32;3.75;;;21.00;38.20;;;;;;5034674;28;20045;-62
2022/04/02 11:33:45;;;;;;;11.73;3.88;;;21.00;38.20;;;;;;5035723;28;20140;-63
2022/04/02 11:36:14;;;;;;;8.57;3.50;;;21.00;38.20;;;;;;5017497;28;20153;-63
2022/04/02 11:38:49;;;;;;;9.05;3.45;;;21.00;38.20;;;;;;5024452;28;20234;-61
2022/04/02 11:41:34;;;;;;;14.07;4.13;;;21.00;38.10;;;;;;5015822;28;20158;-62
2022/04/02 11:44:16;;;;;;;15.45;3.97;;;21.00;38.00;;;;;;5033494;28;20088;-61
2022/04/02 11:46:55;;;;;;;9.20;3.20;;;21.00;38.00;;;;;;5034743;28;20128;-61
2022/04/02 11:49:26;;;;;;;13.10;3.47;;;21.00;37.90;;;;;;5018511;28;20110;-60
2022/04/02 11:52:05;;;;;;;8.82;3.30;;;21.00;37.80;;;;;;5035342;28;20040;-62
2022/04/02 11:54:37;;;;;;;7.22;2.97;;;21.00;37.70;;;;;;5016581;28;20056;-64
2022/04/02 11:57:21;;;;;;;10.90;3.50;;;21.00;37.70;;;;;;5002728;28;20540;-62
2022/04/02 12:00:01;;;;;;;8.25;2.70;;;21.00;37.60;;;;;;5017052;28;20052;-63
2022/04/02 12:02:43;;;;;;;8.73;3.03;;;21.00;37.60;;;;;;5015145;28;20037;-61
2022/04/02 12:05:13;;;;;;;7.03;2.70;;;21.00;37.70;;;;;;4999657;28;20465;-62
2022/04/02 12:07:50;;;;;;;10.40;2.83;;;21.00;37.70;;;;;;5015939;28;20033;-63
2022/04/02 12:10:17;;;;;;;7.18;2.38;;;20.90;37.70;;;;;;5015816;28;20060;-61
2022/04/02 12:12:48;;;;;;;4.68;2.10;;;20.90;37.70;;;;;;5018503;28;20096;-61
2022/04/02 12:15:15;;;;;;;8.65;2.25;;;20.90;37.60;;;;;;5033873;28;20385;-62
2022/04/02 12:17:47;;;;;;;6.97;2.05;;;20.90;37.60;;;;;;5032976;28;20389;-63
2022/04/02 12:20:33;;;;;;;5.55;2.25;;;20.90;37.50;;;;;;5034502;28;20400;-62
2022/04/02 12:23:15;;;;;;;8.48;2.75;;;20.90;37.50;;;;;;5011310;28;20492;-62
2022/04/02 12:25:46;;;;;;;7.72;2.40;;;20.90;37.30;;;;;;5016626;28;20080;-63
2022/04/02 12:28:18;;;;;;;7.80;2.60;;;20.90;37.30;;;;;;5032316;28;20124;-61
2022/04/02 12:30:48;;;;;;;5.30;1.90;;;20.80;37.20;;;;;;5032811;28;20045;-62
2022/04/02 12:33:24;;;;;;;5.18;2.03;;;20.80;37.10;;;;;;5033600;28;20049;-62
2022/04/02 12:36:06;;;;;;;6.30;1.90;;;20.90;37.10;;;;;;5016610;28;20049;-58
2022/04/02 12:38:34;;;;;;;5.20;2.17;;;20.80;37.00;;;;;;5032210;28;20029;-64
2022/04/02 12:41:01;;;;;;;7.20;1.70;;;20.90;37.10;;;;;;5019814;28;20061;-67
2022/04/02 12:43:34;;;;;;;4.80;1.98;;;20.80;37.00;;;;;;5011752;28;20049;-66
2022/04/02 12:46:03;;;;;;;5.68;1.75;;;20.90;37.00;;;;;;5014811;28;20076;-61
2022/04/02 12:48:44;;;;;;;5.30;1.70;;;20.80;37.00;;;;;;5023609;28;20541;-63
2022/04/02 12:51:17;;;;;;;6.38;1.65;;;20.80;37.00;;;;;;5024081;28;20057;-61
2022/04/02 12:53:49;;;;;;;5.53;1.67;;;20.80;37.00;;;;;;5014153;28;20044;-62
2022/04/02 12:56:25;;;;;;;4.68;1.67;;;20.80;37.10;;;;;;4997920;28;20473;-61
2022/04/02 12:58:52;;;;;;;4.57;1.50;;;20.80;37.10;;;;;;5033952;28;20434;-63
2022/04/02 13:01:27;;;;;;;3.15;1.55;;;20.80;37.20;;;;;;5014933;28;20052;-60
2022/04/02 13:03:59;;;;;;;4.03;1.75;;;20.80;37.20;;;;;;5025382;28;20076;-61
2022/04/02 13:06:27;;;;;;;2.35;1.33;;;20.80;37.20;;;;;;5023530;28;20131;-61
2022/04/02 13:09:01;;;;;;;2.97;1.35;;;20.80;37.00;;;;;;5004363;28;20678;-60
2022/04/02 13:11:56;;;;;;;4.20;1.58;;;20.80;37.00;;;;;;5033068;28;20048;-64